ADDS METAR Data INFO
IDs: Format: Raw Decoded Include TAF

Data at: 2239 UTC 22 Aug 2017

KOSA 222215Z AUTO 13003KT 10SM CLR 34/23 A3000 RMK AO1 T03390225
KOSA 222155Z AUTO 00000KT 10SM CLR 34/23 A3001 RMK AO1 T03410225
KOSA 222135Z AUTO 12004KT 10SM CLR 34/23 A3001 RMK AO1 T03400227
KOSA 222115Z AUTO 14006KT 10SM SCT047 34/23 A3001 RMK AO1 T03390231
KOSA 222055Z AUTO 16006KT 10SM SCT045 34/24 A3002 RMK AO1 T03410237
KOSA 222035Z AUTO 13003KT 10SM CLR 34/23 A3002 RMK AO1 T03360230
KOSA 222015Z AUTO 18003KT 10SM CLR 33/22 A3004 RMK AO1 T03290224
KOSA 221955Z AUTO 16004KT 10SM CLR 34/23 A3005 RMK AO1 T03370229
KOSA 221935Z AUTO 00000KT 10SM CLR 34/22 A3005 RMK AO1 T03360224
KOSA 221915Z AUTO 18003KT A3006 RMK AO1
KOSA 221855Z AUTO 19004KT 10SM CLR A3007 RMK AO1
KOSA 221835Z AUTO 23005KT 10SM CLR A3007 RMK AO1
KOSA 221815Z AUTO 23006KT 10SM CLR 33/22 A3007 RMK AO1 T03300219
KOSA 221755Z AUTO 20007KT 10SM CLR 33/22 A3008 RMK AO1 T03280219
KOSA 221735Z AUTO 22005KT 10SM CLR 32/22 A3008 RMK AO1 T03230219
KOSA 221715Z AUTO 00000KT 10SM CLR 32/22 A3009 RMK AO1 T03190220
KOSA 221655Z AUTO 26005KT 10SM CLR 32/22 A3009 RMK AO1 T03200221
KOSA 221635Z AUTO 24004KT 10SM CLR 32/22 A3010 RMK AO1 T03170221
KOSA 221615Z AUTO 23005KT 10SM CLR 31/22 A3010 RMK AO1 T03090217
KOSA 221555Z AUTO 23004KT 10SM CLR 31/22 A3010 RMK AO1 T03090219
KOSA 221535Z AUTO 26006KT 10SM CLR 31/22 A3010 RMK AO1 T03050218
KOSA 221515Z AUTO 22005KT 10SM CLR 30/22 A3010 RMK AO1 T02990221
KOSA 221455Z AUTO 23006KT 10SM CLR 29/22 A3010 RMK AO1 T02890223
KOSA 221435Z AUTO 23006KT 10SM CLR 29/23 A3010 RMK AO1 T02850229
KOSA 221415Z AUTO 25005KT 10SM CLR 28/23 A3009 RMK AO1 T02750233
KOSA 221355Z AUTO 00000KT 10SM CLR 26/24 A3009 RMK AO1 T02620239
KOSA 221335Z AUTO 16003KT 10SM CLR 25/24 A3009 RMK AO1 T02500242
KOSA 221315Z AUTO 13003KT 7SM CLR 24/24 A3009 RMK AO1 T02420242
KOSA 221255Z AUTO 00000KT 5SM CLR A3007 RMK AO1
KOSA 221235Z AUTO 00000KT 4SM CLR A3007 RMK AO1
KOSA 221215Z AUTO 00000KT 5SM CLR A3007 RMK AO1
KOSA 221155Z AUTO 00000KT 5SM CLR A3007 RMK AO1
KOSA 221135Z AUTO 00000KT 7SM CLR A3006 RMK AO1
KOSA 221115Z AUTO 00000KT 7SM CLR 23/23 A3006 RMK AO1 T02250225
KOSA 221055Z AUTO 00000KT 7SM CLR 23/22 A3005 RMK AO1 T02250224
KOSA 221035Z AUTO 00000KT 7SM CLR 23/22 A3005 RMK AO1 T02280218
KOSA 221015Z AUTO 00000KT 10SM CLR 24/21 A3006 RMK AO1 T02410214
KOSA 220955Z AUTO 00000KT 10SM CLR 24/22 A3005 RMK AO1 T02410217
KOSA 220935Z AUTO 00000KT 10SM CLR 24/22 A3006 RMK AO1 T02370217
KOSA 220915Z AUTO 00000KT 10SM CLR 24/22 A3006 RMK AO1 T02350220
KOSA 220855Z AUTO 00000KT 10SM CLR 23/22 A3005 RMK AO1 T02320217
KOSA 220835Z AUTO 00000KT 10SM CLR 24/22 A3006 RMK AO1 T02370221
KOSA 220815Z AUTO 00000KT 7SM CLR 23/22 A3006 RMK AO1 T02320224
KOSA 220755Z AUTO 00000KT 10SM CLR 23/22 A3006 RMK AO1 T02340220
KOSA 220735Z AUTO 00000KT 10SM CLR 24/22 A3007 RMK AO1 T02370219
KOSA 220715Z AUTO 00000KT 10SM CLR 24/22 A3007 RMK AO1 T02370221
KOSA 220655Z AUTO 00000KT 10SM CLR 24/22 A3007 RMK AO1 T02360220
KOSA 220635Z AUTO 00000KT 10SM CLR 24/22 A3007 RMK AO1 T02380220
KOSA 220615Z AUTO 13003KT 10SM CLR 24/22 A3007 RMK AO1 T02410221
KOSA 220555Z AUTO 00000KT 10SM CLR 24/22 A3008 RMK AO1 T02420222 10312 20242
KOSA 220535Z AUTO 13003KT 10SM CLR 25/22 A3009 RMK AO1 T02450222
KOSA 220515Z AUTO 00000KT 10SM CLR 25/23 A3009 RMK AO1 T02450227
KOSA 220455Z AUTO 00000KT 10SM CLR 25/23 A3010 RMK AO1 T02460226
KOSA 220435Z AUTO 13003KT 10SM CLR 25/23 A3010 RMK AO1 T02490227
KOSA 220415Z AUTO 12003KT 10SM CLR 25/23 A3010 RMK AO1 T02500226
KOSA 220355Z AUTO 13003KT 10SM CLR 25/23 A3010 RMK AO1 T02500230
KOSA 220335Z AUTO 14004KT 10SM CLR 26/23 A3010 RMK AO1 T02550228
KOSA 220315Z AUTO 13005KT 10SM CLR 26/23 A3009 RMK AO1 T02580230
KOSA 220255Z AUTO 13005KT 10SM CLR 26/23 A3009 RMK AO1 T02610231
KOSA 220235Z AUTO 13003KT 10SM CLR 26/23 A3008 RMK AO1 T02640234
KOSA 220215Z AUTO 12003KT 10SM CLR 27/23 A3008 RMK AO1 T02700233
KOSA 220155Z AUTO 13003KT 10SM CLR 28/24 A3007 RMK AO1 T02750237
KOSA 220135Z AUTO 13003KT 10SM CLR 28/24 A3007 RMK AO1 T02770237
KOSA 220115Z AUTO 13004KT 10SM CLR 28/24 A3007 RMK AO1 T02800236
KOSA 220055Z AUTO 13004KT 10SM CLR 29/24 A3006 RMK AO1 T02870237
KOSA 220035Z AUTO 11003KT 10SM CLR 30/24 A3006 RMK AO1 T02950241
KOSA 220015Z AUTO 13004KT 10SM CLR 31/23 A3006 RMK AO1 T03050233
KOSA 212355Z AUTO 13003KT 10SM CLR 31/23 A3006 RMK AO1 T03120231 10333 20298
KOSA 212335Z AUTO 14004KT 10SM CLR 32/22 A3006 RMK AO1 T03210223
KOSA 212315Z AUTO 15004KT 10SM CLR 32/22 A3006 RMK AO1 T03240222
KOSA 212255Z AUTO 12005KT 10SM SCT043 33/22 A3006 RMK AO1 T03260220
KOSA 212235Z AUTO 12004KT 10SM CLR 33/22 A3006 RMK AO1 T03280221
KOSA 212215Z AUTO 15004KT 10SM CLR 32/22 A3007 RMK AO1 T03200221
KOSA 212155Z AUTO 14005KT 10SM CLR 33/21 A3007 RMK AO1 T03300212
KOSA 212135Z AUTO 16005KT 10SM CLR 33/21 A3008 RMK AO1 T03310213
KOSA 212115Z AUTO 17005KT 10SM SCT039 32/21 A3008 RMK AO1 T03230211
KOSA 212055Z AUTO 18005KT 10SM SCT039 33/22 A3009 RMK AO1 T03290215
KOSA 212035Z AUTO 16006KT 10SM SCT040 33/22 A3009 RMK AO1 T03290218
KOSA 212015Z AUTO 13006KT 10SM SCT035 33/22 A3010 RMK AO1 T03260216
KOSA 211955Z AUTO 15007KT 10SM SCT035 33/22 A3010 RMK AO1 T03250222
KOSA 211935Z AUTO 17006KT 10SM CLR 32/22 A3010 RMK AO1 T03200219
KOSA 211915Z AUTO 16006KT 10SM CLR 32/22 A3011 RMK AO1 T03150224
KOSA 211855Z AUTO 15005KT 10SM CLR 31/23 A3010 RMK AO1 T03060231
KOSA 211835Z AUTO 00000KT 10SM CLR 30/23 A3010 RMK AO1 T02980232
KOSA 211815Z AUTO 13003KT 10SM CLR 30/23 A3011 RMK AO1 T03000228
KOSA 211755Z AUTO 14005KT 10SM CLR 31/22 A3011 RMK AO1 T03080222
KOSA 211735Z AUTO 17004KT 10SM CLR 31/22 A3012 RMK AO1 T03120219
KOSA 211715Z AUTO 16004KT 10SM CLR 32/22 A3012 RMK AO1 T03150220
KOSA 211655Z AUTO 20004KT 10SM SCT029 31/22 A3013 RMK AO1 T03120220
KOSA 211635Z AUTO 18007KT 10SM SCT029 31/22 A3014 RMK AO1 T03090224
KOSA 211615Z AUTO 19003KT 10SM CLR 31/22 A3014 RMK AO1 T03050223
KOSA 211555Z AUTO 21003KT 10SM CLR 30/23 A3014 RMK AO1 T02970226
KOSA 211535Z AUTO 00000KT 10SM CLR 30/23 A3014 RMK AO1 T02980231
KOSA 211515Z AUTO 25005KT 10SM CLR 29/23 A3014 RMK AO1 T02930231
KOSA 211455Z AUTO 21004KT 10SM CLR 29/23 A3013 RMK AO1 T02890234
KOSA 211435Z AUTO 20004KT 10SM CLR 28/24 A3013 RMK AO1 T02820238
KOSA 211415Z AUTO 15004KT 10SM CLR 27/24 A3013 RMK AO1 T02730241
KOSA 211355Z AUTO 16004KT 10SM CLR 26/25 A3012 RMK AO1 T02620246
KOSA 211335Z AUTO 15004KT 10SM CLR 25/25 A3012 RMK AO1 T02510251
KOSA 211315Z AUTO 15004KT 7SM CLR A3012 RMK AO1
KOSA 211255Z AUTO 15003KT 5SM CLR A3011 RMK AO1
KOSA 211235Z AUTO 14003KT 5SM CLR A3011 RMK AO1
KOSA 211215Z AUTO 13003KT 5SM CLR A3011 RMK AO1
KOSA 211155Z AUTO 00000KT 7SM CLR A3011 RMK AO1
KOSA 211135Z AUTO 00000KT 7SM CLR A3010 RMK AO1
KOSA 211115Z AUTO 12003KT 5SM CLR A3009 RMK AO1
KOSA 211055Z AUTO 00000KT 5SM CLR A3009 RMK AO1